Time;durP1;ratioP1;P1;durP2;ratioP2;P2;SDS_P1;SDS_P2;PMS_P1;PMS_P2;Temp;Humidity;BMP_temperature;BMP_pressure;BME280_temperature;BME280_humidity;BME280_pressure;Samples;Min_cycle;Max_cycle;Signal;HPM_P1;HPM_P2
2022/08/16 00:02:58;;;;;;;21.00;19.07;;;20.30;1.00;;;;;;6282226;28;20245;-53
2022/08/16 00:06:01;;;;;;;20.17;18.67;;;20.40;1.00;;;;;;6282639;28;20237;-53
2022/08/16 00:09:04;;;;;;;24.07;21.67;;;20.30;1.00;;;;;;6266434;28;20234;-54
2022/08/16 00:12:07;;;;;;;21.13;19.13;;;20.30;1.00;;;;;;6258872;28;20244;-54
2022/08/16 00:15:15;;;;;;;18.43;17.03;;;20.20;1.00;;;;;;6274538;28;20278;-54
2022/08/16 00:18:21;;;;;;;19.17;17.60;;;20.20;1.00;;;;;;6272966;28;20233;-54
2022/08/16 00:21:32;;;;;;;20.43;18.73;;;20.20;1.00;;;;;;6254332;28;20237;-52
2022/08/16 00:24:35;;;;;;;19.20;17.50;;;20.20;1.00;;;;;;6267122;28;20256;-54
2022/08/16 00:27:39;;;;;;;21.17;19.30;;;20.20;1.00;;;;;;6258529;28;20240;-53
2022/08/16 00:30:42;;;;;;;22.23;20.23;;;20.20;1.00;;;;;;6257946;28;20242;-54
2022/08/16 00:33:47;;;;;;;18.20;16.67;;;20.20;1.00;;;;;;6281821;28;20257;-53
2022/08/16 00:36:52;;;;;;;19.30;17.70;;;20.10;1.00;;;;;;6266921;28;20242;-54
2022/08/16 00:39:57;;;;;;;19.07;17.47;;;20.10;1.00;;;;;;6258010;28;20238;-54
2022/08/16 00:43:00;;;;;;;18.17;16.77;;;20.10;1.00;;;;;;6258030;28;20324;-54
2022/08/16 00:46:11;;;;;;;19.77;18.03;;;20.10;1.00;;;;;;6273421;28;20270;-54
2022/08/16 00:49:36;;;;;;;20.10;18.20;;;20.00;1.00;;;;;;6282279;28;20634;-56
2022/08/16 00:52:46;;;;;;;18.70;16.97;;;20.00;1.00;;;;;;6286031;28;20297;-53
2022/08/16 00:55:56;;;;;;;19.80;18.20;;;20.00;1.00;;;;;;6264431;28;20244;-54
2022/08/16 00:58:59;;;;;;;20.60;18.80;;;20.00;1.00;;;;;;6270394;28;20711;-52
2022/08/16 01:02:06;;;;;;;20.93;19.00;;;20.00;1.00;;;;;;6273673;28;20245;-54
2022/08/16 01:05:32;;;;;;;20.37;18.77;;;20.00;1.00;;;;;;6285857;28;20233;-54
2022/08/16 01:08:36;;;;;;;18.77;17.27;;;20.00;1.00;;;;;;6259931;28;20283;-52
2022/08/16 01:11:42;;;;;;;20.00;18.17;;;19.90;1.00;;;;;;6286087;28;20644;-53
2022/08/16 01:14:59;;;;;;;19.50;18.00;;;19.90;1.00;;;;;;6277416;28;20236;-54
2022/08/16 01:18:04;;;;;;;17.43;16.13;;;19.90;1.00;;;;;;6287796;28;20237;-53
2022/08/16 01:21:22;;;;;;;18.37;16.87;;;19.90;1.00;;;;;;6275298;28;20234;-54
2022/08/16 01:24:41;;;;;;;16.63;15.30;;;19.90;1.00;;;;;;6262778;28;20309;-54
2022/08/16 01:27:59;;;;;;;15.87;14.57;;;19.80;1.00;;;;;;6257849;28;20801;-54
2022/08/16 01:31:04;;;;;;;15.97;14.83;;;19.80;1.00;;;;;;6262439;28;20238;-54
2022/08/16 01:34:07;;;;;;;17.30;15.93;;;19.80;1.00;;;;;;6277629;28;20280;-54
2022/08/16 01:37:27;;;;;;;16.50;15.30;;;19.80;1.00;;;;;;6284949;28;20230;-53
2022/08/16 01:40:38;;;;;;;17.63;16.00;;;19.70;1.00;;;;;;6280344;28;20746;-54
2022/08/16 01:43:44;;;;;;;17.47;15.90;;;19.70;1.00;;;;;;6267225;28;20234;-54
2022/08/16 01:46:56;;;;;;;17.70;16.17;;;19.70;1.00;;;;;;6286300;28;20237;-54
2022/08/16 01:49:59;;;;;;;17.37;16.00;;;19.70;1.00;;;;;;6277840;28;20238;-54
2022/08/16 01:53:22;;;;;;;18.47;16.87;;;19.70;1.00;;;;;;6257656;28;20615;-55
2022/08/16 01:56:28;;;;;;;16.67;15.43;;;19.70;1.00;;;;;;6262049;28;20731;-54
2022/08/16 01:59:32;;;;;;;18.43;17.03;;;19.70;1.00;;;;;;6262034;28;20326;-55
2022/08/16 02:02:35;;;;;;;18.00;16.53;;;19.60;1.00;;;;;;6265905;28;20237;-54
2022/08/16 02:05:44;;;;;;;18.17;16.70;;;19.70;1.00;;;;;;6279044;28;20222;-56
2022/08/16 02:08:54;;;;;;;18.20;16.83;;;19.60;1.00;;;;;;6281082;28;20569;-53
2022/08/16 02:12:00;;;;;;;19.83;18.03;;;19.60;1.00;;;;;;6272366;28;20244;-54
2022/08/16 02:15:25;;;;;;;18.33;16.73;;;19.60;1.00;;;;;;6277167;28;20242;-53
2022/08/16 02:18:28;;;;;;;19.03;17.53;;;19.60;1.00;;;;;;6265958;28;20245;-53
2022/08/16 02:21:32;;;;;;;17.57;16.17;;;19.50;1.00;;;;;;6265502;28;20248;-54
2022/08/16 02:24:35;;;;;;;17.17;15.87;;;19.60;1.00;;;;;;6284332;28;20829;-54
2022/08/16 02:27:46;;;;;;;22.13;20.13;;;19.50;1.00;;;;;;6278268;28;20371;-53
2022/08/16 02:30:53;;;;;;;21.87;19.97;;;19.60;1.00;;;;;;6285368;28;20238;-54
2022/08/16 02:33:57;;;;;;;20.63;18.97;;;19.50;1.00;;;;;;6285121;28;20252;-54
2022/08/16 02:37:00;;;;;;;18.93;17.37;;;19.50;1.00;;;;;;6285162;28;20328;-56
2022/08/16 02:40:04;;;;;;;21.90;20.10;;;19.50;1.00;;;;;;6285453;28;20287;-54
2022/08/16 02:43:09;;;;;;;21.23;19.40;;;19.50;1.00;;;;;;6269988;28;20234;-54
2022/08/16 02:46:13;;;;;;;21.37;19.67;;;19.60;1.00;;;;;;6278199;28;20233;-54
2022/08/16 02:49:16;;;;;;;19.53;18.03;;;19.60;1.00;;;;;;6285304;28;20468;-53
2022/08/16 02:52:22;;;;;;;18.67;17.23;;;19.50;1.00;;;;;;6262718;28;20601;-54
2022/08/16 02:55:31;;;;;;;19.50;17.90;;;19.50;1.00;;;;;;6260562;28;20593;-55
2022/08/16 02:58:46;;;;;;;18.80;17.20;;;19.50;1.00;;;;;;6260234;28;20246;-54
2022/08/16 03:01:49;;;;;;;19.73;18.03;;;19.50;1.00;;;;;;6260782;28;20753;-54
2022/08/16 03:04:53;;;;;;;19.93;18.27;;;19.50;1.00;;;;;;6274145;28;20244;-54
2022/08/16 03:07:57;;;;;;;19.50;17.90;;;19.40;1.00;;;;;;6285669;28;20229;-54
2022/08/16 03:11:01;;;;;;;20.27;18.60;;;19.40;1.00;;;;;;6261081;28;20691;-52
2022/08/16 03:14:07;;;;;;;18.53;17.07;;;19.40;1.00;;;;;;6268066;28;20229;-54
2022/08/16 03:17:10;;;;;;;19.53;18.03;;;19.30;1.00;;;;;;6284232;28;20711;-53
2022/08/16 03:20:16;;;;;;;19.67;17.93;;;19.40;1.00;;;;;;6277660;28;20249;-53
2022/08/16 03:23:20;;;;;;;19.57;18.03;;;19.30;1.00;;;;;;6285871;28;20237;-54
2022/08/16 03:26:24;;;;;;;18.30;16.77;;;19.30;1.00;;;;;;6285488;28;20431;-54
2022/08/16 03:29:32;;;;;;;19.77;18.07;;;19.30;1.00;;;;;;6259599;28;20241;-54
2022/08/16 03:32:35;;;;;;;19.67;18.20;;;19.30;1.00;;;;;;6261876;28;20249;-52
2022/08/16 03:35:40;;;;;;;20.13;18.43;;;19.30;1.00;;;;;;6284973;28;20312;-53
2022/08/16 03:38:43;;;;;;;17.83;16.40;;;19.30;1.00;;;;;;6284447;28;20245;-54
2022/08/16 03:41:46;;;;;;;18.23;16.83;;;19.30;1.00;;;;;;6272185;28;20268;-53
2022/08/16 03:44:54;;;;;;;20.33;18.73;;;19.30;1.00;;;;;;6278289;28;20244;-54
2022/08/16 03:48:08;;;;;;;20.83;19.07;;;19.30;1.00;;;;;;6279204;28;20242;-54
2022/08/16 03:51:17;;;;;;;22.53;20.50;;;19.20;1.00;;;;;;6284176;28;20266;-53
2022/08/16 03:54:27;;;;;;;19.40;17.73;;;19.20;1.00;;;;;;6277940;28;20853;-58
2022/08/16 03:57:31;;;;;;;19.13;17.63;;;19.30;1.00;;;;;;6283330;28;20237;-54
2022/08/16 04:00:39;;;;;;;22.07;20.20;;;19.20;1.00;;;;;;6277396;28;20367;-53
2022/08/16 04:03:43;;;;;;;20.03;18.37;;;19.30;1.00;;;;;;6284871;28;20353;-55
2022/08/16 04:06:46;;;;;;;20.60;18.90;;;19.30;1.00;;;;;;6283391;28;20229;-54
2022/08/16 04:09:49;;;;;;;20.00;18.37;;;19.30;1.00;;;;;;6285431;28;20243;-53
2022/08/16 04:12:52;;;;;;;18.93;17.60;;;19.30;1.00;;;;;;6285793;28;20229;-54
2022/08/16 04:16:07;;;;;;;18.73;17.30;;;19.30;1.00;;;;;;6284804;28;20244;-53
2022/08/16 04:19:10;;;;;;;18.37;17.07;;;19.30;1.00;;;;;;6284121;28;20238;-54
2022/08/16 04:22:14;;;;;;;20.17;18.57;;;19.30;1.00;;;;;;6278155;28;20246;-54
2022/08/16 04:25:19;;;;;;;26.37;23.97;;;19.30;1.00;;;;;;6281499;28;20361;-53
2022/08/16 04:28:25;;;;;;;21.03;19.33;;;19.30;1.00;;;;;;6283945;28;20316;-53
2022/08/16 04:31:51;;;;;;;21.47;19.47;;;19.40;1.00;;;;;;6284461;28;20237;-55
2022/08/16 04:34:57;;;;;;;22.40;20.70;;;19.40;1.00;;;;;;6280871;28;20229;-53
2022/08/16 04:38:06;;;;;;;20.87;19.23;;;19.40;1.00;;;;;;6284542;28;20320;-53
2022/08/16 04:41:23;;;;;;;23.00;20.90;;;19.50;1.00;;;;;;6281926;28;20240;-53
2022/08/16 04:44:34;;;;;;;22.83;20.83;;;19.50;1.00;;;;;;6284362;28;20606;-53
2022/08/16 04:47:58;;;;;;;21.37;19.60;;;19.60;1.00;;;;;;6277560;28;20268;-53
2022/08/16 04:51:01;;;;;;;22.00;20.23;;;19.60;1.00;;;;;;6281119;28;20402;-55
2022/08/16 04:54:13;;;;;;;20.73;19.13;;;19.70;1.00;;;;;;6284322;28;20268;-54
2022/08/16 04:57:21;;;;;;;21.70;19.90;;;19.70;1.00;;;;;;6277111;28;20752;-55
2022/08/16 05:00:26;;;;;;;21.83;19.93;;;19.70;1.00;;;;;;6283697;28;20233;-54
2022/08/16 05:03:36;;;;;;;25.00;22.90;;;19.80;1.00;;;;;;6283925;28;20244;-53
2022/08/16 05:06:43;;;;;;;22.87;21.07;;;19.80;1.00;;;;;;6280962;28;20248;-53
2022/08/16 05:09:48;;;;;;;21.90;20.10;;;19.90;1.00;;;;;;6283829;28;20237;-54
2022/08/16 05:12:51;;;;;;;22.20;20.43;;;19.90;1.00;;;;;;6284098;28;20324;-52
2022/08/16 05:15:54;;;;;;;24.37;22.27;;;20.00;1.00;;;;;;6282840;28;20316;-54
2022/08/16 05:19:01;;;;;;;21.93;20.03;;;20.10;1.00;;;;;;6281552;28;20256;-55
2022/08/16 05:22:05;;;;;;;24.10;22.07;;;20.10;1.00;;;;;;6275901;28;20225;-54
2022/08/16 05:25:20;;;;;;;22.10;20.20;;;20.20;1.00;;;;;;6282198;28;20257;-54
2022/08/16 05:28:24;;;;;;;21.93;19.97;;;20.30;1.00;;;;;;6282699;28;20225;-54
2022/08/16 05:31:39;;;;;;;19.20;17.77;;;20.40;1.00;;;;;;6281923;28;20782;-56
2022/08/16 05:34:51;;;;;;;22.23;20.43;;;20.60;1.00;;;;;;6278857;28;20298;-52
2022/08/16 05:37:56;;;;;;;21.27;19.40;;;20.70;1.00;;;;;;6285007;28;20713;-55
2022/08/16 05:41:01;;;;;;;20.10;18.37;;;20.80;1.00;;;;;;6287235;28;20241;-54
2022/08/16 05:44:04;;;;;;;22.90;20.87;;;20.90;1.00;;;;;;6285435;28;20236;-54
2022/08/16 05:47:26;;;;;;;22.03;20.23;;;20.90;1.00;;;;;;6287947;28;20233;-54
2022/08/16 05:50:33;;;;;;;21.80;19.93;;;21.00;1.00;;;;;;6288291;28;20637;-55
2022/08/16 05:53:36;;;;;;;21.63;19.73;;;21.10;1.00;;;;;;6282492;28;20241;-53
2022/08/16 05:56:44;;;;;;;21.17;19.47;;;21.30;1.00;;;;;;6280147;28;20237;-54
2022/08/16 05:59:51;;;;;;;21.60;19.77;;;21.50;1.00;;;;;;6286398;28;20617;-53
2022/08/16 06:03:02;;;;;;;20.27;18.57;;;21.60;1.00;;;;;;6287907;28;20240;-54
2022/08/16 06:06:07;;;;;;;22.40;20.20;;;21.70;1.00;;;;;;6258538;28;20263;-52
2022/08/16 06:09:10;;;;;;;21.77;19.97;;;21.70;1.00;;;;;;6287234;28;20232;-55
2022/08/16 06:12:17;;;;;;;20.87;19.30;;;21.90;1.00;;;;;;6286402;28;20236;-54
2022/08/16 06:15:30;;;;;;;21.63;19.83;;;22.10;1.00;;;;;;6286750;28;20230;-54
2022/08/16 06:18:33;;;;;;;22.07;20.17;;;22.20;1.00;;;;;;6286823;28;20741;-54
2022/08/16 06:21:40;;;;;;;23.93;21.93;;;22.40;1.00;;;;;;6286205;28;20241;-54
2022/08/16 06:24:43;;;;;;;23.10;21.27;;;22.50;1.00;;;;;;6287072;28;20644;-55
2022/08/16 06:27:56;;;;;;;22.70;20.80;;;22.50;1.00;;;;;;6281128;28;20229;-54
2022/08/16 06:31:00;;;;;;;22.70;20.53;;;22.70;1.00;;;;;;6286108;28;20961;-54
2022/08/16 06:34:03;;;;;;;22.97;21.07;;;23.00;1.00;;;;;;6287083;28;20673;-55
2022/08/16 06:37:28;;;;;;;23.10;21.00;;;23.10;1.00;;;;;;6287117;28;20256;-57
2022/08/16 06:40:40;;;;;;;23.07;21.00;;;23.20;1.00;;;;;;6279355;28;20546;-54
2022/08/16 06:43:51;;;;;;;21.97;19.97;;;23.20;1.00;;;;;;6287234;28;20240;-55
2022/08/16 06:46:54;;;;;;;20.30;18.73;;;23.40;1.00;;;;;;6285456;28;24455;-57
2022/08/16 06:49:57;;;;;;;22.90;21.00;;;23.50;1.00;;;;;;6285459;28;20245;-55
2022/08/16 06:53:02;;;;;;;23.87;21.90;;;23.60;1.00;;;;;;6288363;28;20324;-53
2022/08/16 06:56:11;;;;;;;21.77;20.07;;;23.60;1.00;;;;;;6263500;28;20218;-53
2022/08/16 06:59:22;;;;;;;20.30;18.47;;;23.70;1.00;;;;;;6278183;28;20248;-59
2022/08/16 07:02:27;;;;;;;20.97;19.17;;;23.80;1.00;;;;;;6286955;28;20233;-54
2022/08/16 07:05:35;;;;;;;21.10;19.40;;;23.90;1.00;;;;;;6285295;28;20745;-54
2022/08/16 07:08:45;;;;;;;20.43;18.73;;;24.00;1.00;;;;;;6283021;28;20260;-56
2022/08/16 07:11:49;;;;;;;19.53;18.03;;;24.00;1.00;;;;;;6280327;28;20314;-55
2022/08/16 07:14:54;;;;;;;20.20;18.37;;;24.10;1.00;;;;;;6279029;28;20303;-55
2022/08/16 07:18:04;;;;;;;22.80;20.57;;;24.30;1.00;;;;;;6285871;28;20234;-54
2022/08/16 07:21:07;;;;;;;19.67;18.17;;;24.00;1.00;;;;;;6285358;28;20233;-53
2022/08/16 07:24:12;;;;;;;20.17;18.33;;;24.00;1.00;;;;;;6286415;28;20310;-53
2022/08/16 07:27:32;;;;;;;22.47;20.53;;;24.00;1.00;;;;;;6286441;28;20337;-54
2022/08/16 07:30:39;;;;;;;19.13;17.63;;;24.20;1.00;;;;;;6284365;28;20507;-54
2022/08/16 07:33:48;;;;;;;18.37;16.87;;;24.30;1.00;;;;;;6278138;28;20618;-54
2022/08/16 07:36:55;;;;;;;19.37;17.77;;;24.40;1.00;;;;;;6283574;28;20226;-54
2022/08/16 07:40:02;;;;;;;18.73;17.00;;;24.40;1.00;;;;;;6280985;28;20721;-54
2022/08/16 07:43:13;;;;;;;20.17;17.63;;;24.40;1.00;;;;;;6286407;28;20265;-54
2022/08/16 07:46:16;;;;;;;17.77;16.37;;;24.40;1.00;;;;;;6271630;28;20237;-54
2022/08/16 07:49:39;;;;;;;17.77;16.37;;;24.30;1.00;;;;;;6284987;28;20245;-55
2022/08/16 07:52:59;;;;;;;17.93;16.53;;;24.30;1.00;;;;;;6272021;28;20264;-54
2022/08/16 07:56:06;;;;;;;20.70;19.20;;;24.40;1.00;;;;;;6279244;28;20241;-54
2022/08/16 07:59:09;;;;;;;19.70;17.83;;;24.40;1.00;;;;;;6284588;28;20382;-54
2022/08/16 08:02:13;;;;;;;18.97;17.33;;;24.40;1.00;;;;;;6280822;28;20299;-54
2022/08/16 08:05:22;;;;;;;17.20;15.90;;;24.30;1.00;;;;;;6282263;28;20371;-54
2022/08/16 08:08:38;;;;;;;18.10;16.17;;;24.30;1.00;;;;;;6284127;28;20498;-55
2022/08/16 08:11:54;;;;;;;17.80;16.47;;;24.30;1.00;;;;;;6273449;28;20229;-54
2022/08/16 08:15:05;;;;;;;17.73;16.33;;;24.30;1.00;;;;;;6285487;28;20236;-55
2022/08/16 08:18:12;;;;;;;19.00;17.37;;;24.40;1.00;;;;;;6280837;28;20705;-54
2022/08/16 08:21:34;;;;;;;19.93;18.03;;;24.50;1.00;;;;;;6277725;28;20657;-54
2022/08/16 08:24:57;;;;;;;18.63;17.13;;;24.60;1.00;;;;;;6278370;28;20897;-55
2022/08/16 08:28:03;;;;;;;18.47;17.03;;;24.60;1.00;;;;;;6282983;28;20331;-54
2022/08/16 08:31:13;;;;;;;19.60;18.10;;;24.70;1.00;;;;;;6284684;28;20233;-56
2022/08/16 08:34:19;;;;;;;20.93;19.00;;;24.80;1.00;;;;;;6281772;28;20257;-55
2022/08/16 08:37:24;;;;;;;18.87;17.33;;;24.90;1.00;;;;;;6283948;28;20236;-53
2022/08/16 08:40:29;;;;;;;18.20;16.77;;;25.00;1.00;;;;;;6285069;28;20233;-55
2022/08/16 08:43:34;;;;;;;16.83;15.47;;;24.80;1.00;;;;;;6285404;28;20241;-54
2022/08/16 08:46:43;;;;;;;19.00;17.60;;;24.90;1.00;;;;;;6276135;28;20448;-54
2022/08/16 08:50:03;;;;;;;17.17;15.70;;;25.00;1.00;;;;;;6262065;28;20354;-55
2022/08/16 08:53:06;;;;;;;19.93;17.87;;;25.10;1.00;;;;;;6275460;28;20319;-55
2022/08/16 08:56:09;;;;;;;17.60;16.03;;;25.30;1.00;;;;;;6285062;28;20225;-56
2022/08/16 08:59:29;;;;;;;17.27;15.97;;;25.20;1.00;;;;;;6283929;28;20237;-56
2022/08/16 09:02:32;;;;;;;18.13;16.83;;;25.40;1.00;;;;;;6278880;28;20268;-54
2022/08/16 09:05:35;;;;;;;16.57;15.23;;;25.40;1.00;;;;;;6284272;28;20252;-55
2022/08/16 09:08:39;;;;;;;16.47;15.07;;;25.50;1.00;;;;;;6284741;28;20790;-55
2022/08/16 09:11:49;;;;;;;17.77;16.37;;;25.60;1.00;;;;;;6277243;28;20229;-54
2022/08/16 09:15:13;;;;;;;16.93;15.10;;;25.70;1.00;;;;;;6282920;28;20661;-55
2022/08/16 09:18:16;;;;;;;17.60;16.27;;;25.80;1.00;;;;;;6281511;28;20240;-55
2022/08/16 09:21:28;;;;;;;14.50;13.33;;;25.90;1.00;;;;;;6288208;28;20237;-55
2022/08/16 09:24:34;;;;;;;17.53;16.23;;;25.90;1.00;;;;;;6289402;28;20236;-54
2022/08/16 09:27:55;;;;;;;15.87;14.77;;;26.00;1.00;;;;;;6281951;28;20520;-56
2022/08/16 09:31:12;;;;;;;17.50;15.80;;;26.00;1.00;;;;;;6284464;28;20312;-55
2022/08/16 09:34:15;;;;;;;15.57;14.27;;;26.10;1.00;;;;;;6290189;28;20324;-56
2022/08/16 09:37:21;;;;;;;15.80;13.60;;;26.20;1.00;;;;;;6290311;28;20648;-54
2022/08/16 09:40:31;;;;;;;16.83;15.30;;;26.40;1.00;;;;;;6289032;28;20611;-55
2022/08/16 09:43:45;;;;;;;15.63;14.40;;;26.40;1.00;;;;;;6284001;28;20236;-54
2022/08/16 09:47:04;;;;;;;16.20;14.93;;;26.40;1.00;;;;;;6289183;28;20324;-55
2022/08/16 09:50:13;;;;;;;14.57;13.33;;;26.50;1.00;;;;;;6286205;28;20242;-55
2022/08/16 09:53:25;;;;;;;13.47;12.57;;;26.70;1.00;;;;;;6286383;28;20256;-56
2022/08/16 09:56:32;;;;;;;16.93;15.67;;;26.80;1.00;;;;;;6289319;28;20248;-54
2022/08/16 09:59:34;;;;;;;16.97;15.37;;;26.90;1.00;;;;;;6282489;28;20248;-55
2022/08/16 10:02:46;;;;;;;15.70;14.40;;;26.80;1.00;;;;;;6281200;28;20608;-56
2022/08/16 10:05:50;;;;;;;14.40;13.30;;;26.90;1.00;;;;;;6288843;28;20240;-55
2022/08/16 10:08:54;;;;;;;15.87;14.47;;;26.90;1.00;;;;;;6276892;28;20239;-55
2022/08/16 10:15:30;;;;;;;12.93;12.10;;;27.20;1.00;;;;;;6287533;28;20237;-55
2022/08/16 10:18:34;;;;;;;13.60;12.60;;;27.30;1.00;;;;;;6288124;28;20286;-56
2022/08/16 10:21:57;;;;;;;11.20;10.30;;;27.30;1.00;;;;;;6287905;28;20287;-55
2022/08/16 10:25:01;;;;;;;10.10;9.40;;;27.50;1.00;;;;;;6286065;28;20374;-56
2022/08/16 10:28:06;;;;;;;9.83;9.13;;;27.60;1.00;;;;;;6289124;28;20251;-57
2022/08/16 10:31:29;;;;;;;10.17;9.30;;;27.70;1.00;;;;;;6287400;28;20249;-55
2022/08/16 10:34:49;;;;;;;13.87;12.73;;;27.80;1.00;;;;;;6274391;28;20229;-53
2022/08/16 10:37:54;;;;;;;11.93;10.73;;;27.90;1.00;;;;;;6288170;28;20230;-56
2022/08/16 10:40:57;;;;;;;11.60;10.53;;;27.90;1.00;;;;;;6283087;28;20875;-57
2022/08/16 10:44:02;;;;;;;11.73;11.03;;;28.10;1.00;;;;;;6278944;28;20746;-55
2022/08/16 10:47:06;;;;;;;11.80;10.73;;;28.30;1.00;;;;;;6285737;28;20229;-55
2022/08/16 10:50:12;;;;;;;10.80;9.70;;;28.40;1.00;;;;;;6287966;28;20237;-56
2022/08/16 10:53:21;;;;;;;10.93;10.20;;;28.50;1.00;;;;;;6287506;28;20631;-55
2022/08/16 10:56:24;;;;;;;10.67;9.90;;;28.60;1.00;;;;;;6282376;28;20232;-55
2022/08/16 10:59:47;;;;;;;10.73;10.03;;;28.80;1.00;;;;;;6279076;28;20233;-55
2022/08/16 11:03:01;;;;;;;12.00;10.70;;;29.10;1.00;;;;;;6281633;28;20233;-56
2022/08/16 11:06:08;;;;;;;10.97;9.97;;;29.10;1.00;;;;;;6282950;28;20282;-56
2022/08/16 11:09:14;;;;;;;12.10;11.00;;;29.10;1.00;;;;;;6286000;28;20368;-55
2022/08/16 11:12:30;;;;;;;10.47;9.77;;;29.10;1.00;;;;;;6278713;28;20226;-55
2022/08/16 11:15:34;;;;;;;12.20;11.17;;;28.90;1.00;;;;;;6286530;28;20312;-55
2022/08/16 11:18:38;;;;;;;11.90;10.90;;;29.00;1.00;;;;;;6286478;28;20745;-55
2022/08/16 11:22:02;;;;;;;10.90;10.27;;;29.20;1.00;;;;;;6282820;28;20244;-59
2022/08/16 11:25:28;;;;;;;11.47;10.57;;;29.40;1.00;;;;;;6285885;28;20244;-55
2022/08/16 11:28:52;;;;;;;12.10;11.23;;;29.50;1.00;;;;;;6281504;28;20229;-55
2022/08/16 11:32:16;;;;;;;11.50;10.48;;;29.60;1.00;;;;;;6286151;28;20229;-55
2022/08/16 11:35:26;;;;;;;11.95;10.85;;;29.40;1.00;;;;;;6286424;28;20618;-55
2022/08/16 11:38:50;;;;;;;10.63;9.77;;;29.50;1.00;;;;;;6284143;28;20226;-55
2022/08/16 11:42:00;;;;;;;11.05;10.30;;;29.80;1.00;;;;;;6286388;28;20328;-57
2022/08/16 11:45:04;;;;;;;10.25;9.35;;;29.70;1.00;;;;;;6286284;28;20244;-56
2022/08/16 11:48:08;;;;;;;10.48;9.63;;;29.80;1.00;;;;;;6284638;28;20240;-56
2022/08/16 11:51:11;;;;;;;10.63;9.57;;;29.80;1.00;;;;;;6286915;28;20273;-56
2022/08/16 11:54:16;;;;;;;10.18;9.23;;;29.80;1.00;;;;;;6286406;28;20320;-56
2022/08/16 11:57:24;;;;;;;9.40;8.57;;;29.40;1.00;;;;;;6281004;28;20332;-54
2022/08/16 12:00:30;;;;;;;13.70;9.68;;;29.30;1.00;;;;;;6284956;28;20633;-55
2022/08/16 12:03:53;;;;;;;9.52;8.80;;;29.60;1.00;;;;;;6280948;28;20668;-57
2022/08/16 12:06:56;;;;;;;9.57;8.85;;;29.90;1.00;;;;;;6283303;28;20233;-56
2022/08/16 12:10:01;;;;;;;9.02;8.45;;;30.10;1.00;;;;;;6285940;28;20271;-55
2022/08/16 12:13:05;;;;;;;9.65;8.82;;;29.70;1.00;;;;;;6284305;28;21467;-55
2022/08/16 12:16:13;;;;;;;9.47;8.67;;;29.70;1.00;;;;;;6285088;28;20316;-55
2022/08/16 12:19:22;;;;;;;10.00;9.13;;;29.40;1.00;;;;;;6285037;28;20241;-57
2022/08/16 12:22:38;;;;;;;11.25;9.52;;;29.20;1.00;;;;;;6276601;28;20329;-59
2022/08/16 12:25:42;;;;;;;9.90;9.13;;;29.10;1.00;;;;;;6284907;28;20620;-56
2022/08/16 12:28:45;;;;;;;10.68;8.63;;;29.00;1.00;;;;;;6284907;28;20229;-58
2022/08/16 12:31:57;;;;;;;9.40;8.52;;;29.30;1.00;;;;;;6282889;28;20230;-57
2022/08/16 12:35:21;;;;;;;8.95;8.10;;;29.50;1.00;;;;;;6281202;28;21215;-55
2022/08/16 12:38:24;;;;;;;9.32;8.60;;;29.60;1.00;;;;;;6284041;28;20620;-57
2022/08/16 12:41:48;;;;;;;8.98;8.27;;;29.50;1.00;;;;;;6280054;28;20247;-56
2022/08/16 12:44:51;;;;;;;9.57;8.70;;;29.30;1.00;;;;;;6283290;28;20229;-56
2022/08/16 12:51:37;;;;;;;9.20;8.27;;;29.10;1.00;;;;;;6277513;28;20823;-55
2022/08/16 12:55:00;;;;;;;7.80;7.35;;;29.30;1.00;;;;;;6279106;28;20517;-55
2022/08/16 12:58:05;;;;;;;8.40;7.70;;;29.50;1.00;;;;;;6284246;28;20233;-55
2022/08/16 13:01:32;;;;;;;8.80;8.17;;;29.30;1.00;;;;;;6277354;28;20244;-56
2022/08/16 13:04:36;;;;;;;8.47;7.87;;;29.30;1.00;;;;;;6284906;28;20286;-56
2022/08/16 13:07:41;;;;;;;8.80;8.13;;;29.10;1.00;;;;;;6279043;28;20229;-54
2022/08/16 13:10:54;;;;;;;8.43;7.97;;;29.10;1.00;;;;;;6275031;28;20230;-56
2022/08/16 13:13:58;;;;;;;9.20;8.57;;;29.00;1.00;;;;;;6284434;28;20260;-57
2022/08/16 13:17:04;;;;;;;8.60;8.00;;;29.00;1.00;;;;;;6283988;28;20702;-55
2022/08/16 13:20:11;;;;;;;8.88;8.20;;;29.00;1.00;;;;;;6282652;28;20244;-56
2022/08/16 13:23:17;;;;;;;7.63;7.10;;;29.00;1.00;;;;;;6284519;28;20237;-56
2022/08/16 13:26:21;;;;;;;8.10;7.40;;;29.00;1.00;;;;;;6267298;28;20237;-52
2022/08/16 13:29:26;;;;;;;7.97;7.47;;;29.10;1.00;;;;;;6279283;28;20797;-54
2022/08/16 13:32:42;;;;;;;8.03;7.40;;;29.10;1.00;;;;;;6283646;28;20726;-55
2022/08/16 13:35:47;;;;;;;8.23;7.60;;;29.10;1.00;;;;;;6280332;28;20237;-55
2022/08/16 13:38:59;;;;;;;7.40;6.97;;;29.00;1.00;;;;;;6278609;28;20241;-56
2022/08/16 13:42:03;;;;;;;8.90;8.10;;;28.90;1.00;;;;;;6283531;28;20235;-54
2022/08/16 13:45:09;;;;;;;8.87;8.17;;;28.90;1.00;;;;;;6271803;28;20233;-54
2022/08/16 13:48:18;;;;;;;9.70;8.77;;;28.80;1.00;;;;;;6283447;28;20229;-57
2022/08/16 13:51:28;;;;;;;8.27;7.67;;;28.80;1.00;;;;;;6283613;28;20330;-55
2022/08/16 13:54:32;;;;;;;8.00;7.60;;;29.00;1.00;;;;;;6277306;28;20233;-56
2022/08/16 13:57:35;;;;;;;7.53;7.03;;;29.20;1.00;;;;;;6283753;28;20825;-56
2022/08/16 14:01:00;;;;;;;7.28;6.88;;;29.30;1.00;;;;;;6281633;28;20257;-57
2022/08/16 14:04:04;;;;;;;7.65;7.05;;;29.40;1.00;;;;;;6281895;28;20268;-56
2022/08/16 14:07:11;;;;;;;9.05;7.32;;;29.40;1.00;;;;;;6287622;28;20245;-55
2022/08/16 14:10:21;;;;;;;7.30;7.00;;;29.50;1.00;;;;;;6287421;28;20387;-56
2022/08/16 14:13:24;;;;;;;7.43;6.70;;;29.70;1.00;;;;;;6269967;28;20243;-57
2022/08/16 14:16:29;;;;;;;7.18;6.55;;;29.90;1.00;;;;;;6287698;28;20312;-59
2022/08/16 14:19:36;;;;;;;6.38;5.97;;;30.10;1.00;;;;;;6274789;28;20320;-55
2022/08/16 14:22:47;;;;;;;6.95;6.43;;;30.30;1.00;;;;;;6288035;28;20307;-57
2022/08/16 14:25:56;;;;;;;6.30;5.90;;;30.30;1.00;;;;;;6287103;28;20236;-56
2022/08/16 14:28:59;;;;;;;6.50;6.20;;;30.30;1.00;;;;;;6285361;28;20241;-57
2022/08/16 14:32:07;;;;;;;7.00;6.25;;;30.20;1.00;;;;;;6287504;28;20688;-56
2022/08/16 14:35:17;;;;;;;6.60;6.20;;;30.00;1.00;;;;;;6284294;28;20276;-55
2022/08/16 14:38:20;;;;;;;7.05;6.32;;;29.90;1.00;;;;;;6283801;28;20226;-57
2022/08/16 14:41:26;;;;;;;6.55;5.93;;;29.80;1.00;;;;;;6287838;28;20252;-55
2022/08/16 14:44:29;;;;;;;7.20;6.35;;;29.80;1.00;;;;;;6287000;28;20233;-56
2022/08/16 14:47:35;;;;;;;6.15;5.85;;;29.90;1.00;;;;;;6284848;28;20237;-56
2022/08/16 14:50:39;;;;;;;5.72;5.43;;;30.00;1.00;;;;;;6286989;28;20678;-57
2022/08/16 14:53:43;;;;;;;6.07;5.78;;;30.10;1.00;;;;;;6287883;28;20252;-57
2022/08/16 14:56:53;;;;;;;5.88;5.57;;;30.30;1.00;;;;;;6285147;28;20302;-57
2022/08/16 14:59:57;;;;;;;5.50;5.07;;;30.50;1.00;;;;;;6281655;28;20324;-56
2022/08/16 15:03:10;;;;;;;5.90;5.50;;;30.60;1.00;;;;;;6286254;28;20268;-56
2022/08/16 15:06:13;;;;;;;6.22;5.70;;;30.70;1.00;;;;;;6284811;28;20316;-57
2022/08/16 15:09:18;;;;;;;6.15;5.65;;;30.80;1.00;;;;;;6286974;28;20229;-56
2022/08/16 15:12:26;;;;;;;5.93;5.53;;;30.90;1.00;;;;;;6286494;28;20694;-57
2022/08/16 15:15:36;;;;;;;6.43;6.13;;;30.90;1.00;;;;;;6277552;28;20233;-55
2022/08/16 15:18:41;;;;;;;5.43;5.13;;;30.80;1.00;;;;;;6285021;28;20244;-57
2022/08/16 15:21:48;;;;;;;6.13;5.80;;;30.70;1.00;;;;;;6283762;28;20222;-55
2022/08/16 15:24:57;;;;;;;6.55;6.10;;;30.70;1.00;;;;;;6286183;28;20241;-57
2022/08/16 15:28:02;;;;;;;6.78;6.35;;;30.60;1.00;;;;;;6286587;28;20257;-58
2022/08/16 15:31:09;;;;;;;5.72;5.50;;;30.40;1.00;;;;;;6284222;28;20241;-57
2022/08/16 15:34:16;;;;;;;6.10;5.55;;;30.20;1.00;;;;;;6286191;28;20245;-56
2022/08/16 15:37:28;;;;;;;5.78;5.57;;;30.10;1.00;;;;;;6285919;28;20616;-58
2022/08/16 15:40:44;;;;;;;6.60;6.30;;;30.10;1.00;;;;;;6285004;28;20246;-56
2022/08/16 15:44:00;;;;;;;6.38;5.78;;;30.20;1.00;;;;;;6281386;28;20919;-55
2022/08/16 15:47:14;;;;;;;5.60;5.25;;;30.20;1.00;;;;;;6277240;28;20804;-57
2022/08/16 15:50:18;;;;;;;5.85;5.55;;;30.10;1.00;;;;;;6284875;28;20307;-58
2022/08/16 15:53:23;;;;;;;5.22;5.03;;;30.00;1.00;;;;;;6284116;28;20419;-58
2022/08/16 15:56:26;;;;;;;6.30;6.07;;;30.00;1.00;;;;;;6285553;28;20332;-57
2022/08/16 15:59:30;;;;;;;5.53;5.33;;;30.00;1.00;;;;;;6285930;28;20279;-57
2022/08/16 16:03:00;;;;;;;6.82;6.30;;;30.00;1.00;;;;;;6279037;28;20278;-56
2022/08/16 16:06:05;;;;;;;6.78;6.38;;;29.90;1.00;;;;;;6286502;28;20293;-58
2022/08/16 16:09:07;;;;;;;6.25;6.05;;;29.70;1.00;;;;;;6284694;28;20249;-60
2022/08/16 16:12:13;;;;;;;6.75;6.43;;;29.60;1.00;;;;;;6285869;28;20239;-57
2022/08/16 16:15:38;;;;;;;6.38;6.07;;;29.50;1.00;;;;;;6283309;28;20337;-57
2022/08/16 16:18:41;;;;;;;6.35;5.95;;;29.50;1.00;;;;;;6285065;28;20362;-59
2022/08/16 16:21:52;;;;;;;6.55;6.25;;;29.40;1.00;;;;;;6284506;28;20778;-56
2022/08/16 16:24:55;;;;;;;7.07;6.53;;;29.30;1.00;;;;;;6280492;28;20559;-57